Roy, NM (87743)

1:33 PM MDT on May 30, 2015 (GMT -0600)
RAWS | | Change Station
CLOSE
Current Station
Personal Weather Station
Location: Mills, NM
Elevation: 5838 ft
Nearby Weather Stations

Elev 5838 ft 36.06 °N, 104.32 °W | Updated 28 minutes ago

Partly Cloudy
Partly Cloudy
67 °F
Feels Like 67 °F
N
11
Wind Variable Wind from South
Gusts 18.0 mph

Today
High -- | Low -- °F
--% Chance of Precip.
Yesterday
High -- | Low -- °F
Precip. -- in
5:41 AM 8:06 PM
Waxing Gibbous, 91% visible
Pressure 30.10 in
Visibility 10.0 miles
Clouds Few 4500 ft
Dew Point 48 °F
Humidity 50%
Rainfall in
Snow Depth Not available.
UV 13 out of 12
Pollen 5.00 out of 12
Air Quality Not available.
Flu Activity Sporadic
METAR KRTN 301853Z AUTO 17009G15KT 10SM FEW045 20/08 A3029 RMK AO2 SLP191 T02000078

More Conditions Fewer Conditions

Pressure 30.10 in
Visibility 10.0 miles
Clouds Few 4500 ft
Dew Point 48 °F
Humidity 50%
Rainfall in
Snow Depth Not available.
UV 13 out of 12
Pollen 5.00 out of 12
Air Quality Not available.
Flu Activity Sporadic
METAR KRTN 301853Z AUTO 17009G15KT 10SM FEW045 20/08 A3029 RMK AO2 SLP191 T02000078

More Conditions Fewer Conditions

10-Day Weather Forecast

Almanac

Astronomy

May. 30, 2015 Rise Set
Actual Time
Civil Twilight
Nautical Twilight
Astronomical Twilight
Moon
Length of Visible Light
Length of Day
Tomorrow will be .
, % of the Moon is Illuminated

Today's Extremes

State Highs State Lows

Community

WunderPhotos

Upload Photos

1,825,594 photos uploaded!

WunderBlogs® & News

Nearby

Air Quality

  Air Quality AQ Index Pollutant
Not available.

Snow Depth

Station Depth Elevation

Earthquake Activity

City Distance Mag. Time & Date
Minimum magnitude displayed is 2.5.

Coastal Water Temperatures

Place Temperature

Stations

Nearby Weather Stations

Station Location Temp. Windchill Dew Point Humidity Wind Precip. Elev Updated Type